Time;durP1;ratioP1;P1;durP2;ratioP2;P2;SDS_P1;SDS_P2;PMS_P1;PMS_P2;Temp;Humidity;BMP_temperature;BMP_pressure;BME280_temperature;BME280_humidity;BME280_pressure;Samples;Min_cycle;Max_cycle;Signal;HPM_P1;HPM_P2
2023/04/11 00:00:18;;;;;;;2.72;0.60;;;;;;;;;;4990692;28;20435;-61
2023/04/11 00:02:45;;;;;;;2.33;0.60;;;;;;;;;;4977064;28;20561;-63
2023/04/11 00:05:12;;;;;;;3.40;0.57;;;;;;;;;;4976768;28;20786;-63
2023/04/11 00:07:38;;;;;;;4.45;0.90;;;;;;;;;;4976167;28;20785;-60
2023/04/11 00:10:06;;;;;;;5.90;0.90;;;;;;;;;;4970773;28;20042;-62
2023/04/11 00:12:32;;;;;;;2.15;0.60;;;;;;;;;;4977146;28;20054;-62
2023/04/11 00:14:59;;;;;;;7.05;0.70;;;;;;;;;;4976675;28;20043;-62
2023/04/11 00:17:45;;;;;;;1.52;0.43;;;;;;;;;;5007467;28;20044;-63
2023/04/11 00:20:13;;;;;;;11.02;0.60;;;;;;;;;;4992878;28;20043;-64
2023/04/11 00:22:40;;;;;;;5.57;0.88;;;;;;;;;;4995876;28;20503;-64
2023/04/11 00:25:07;;;;;;;5.22;0.82;;;;;;;;;;4993988;28;20121;-67
2023/04/11 00:27:34;;;;;;;5.70;1.15;;;;;;;;;;5008429;28;20026;-65
2023/04/11 00:30:01;;;;;;;5.25;0.55;;;;;;;;;;5012192;28;20050;-66
2023/04/11 00:32:27;;;;;;;2.97;0.70;;;;;;;;;;5013291;28;20038;-66
2023/04/11 00:34:54;;;;;;;7.18;1.90;;;;;;;;;;5012306;28;20140;-65
2023/04/11 00:37:21;;;;;;;3.58;0.70;;;;;;;;;;4990541;28;20084;-65
2023/04/11 00:39:51;;;;;;;7.40;1.00;;;;;;;;;;5009064;28;20064;-66
2023/04/11 00:42:19;;;;;;;4.00;1.00;;;;;;;;;;5011149;28;20041;-67
2023/04/11 00:44:46;;;;;;;3.05;0.68;;;;;;;;;;5010896;28;20545;-65
2023/04/11 00:47:13;;;;;;;4.95;0.77;;;;;;;;;;5011294;28;20068;-65
2023/04/11 00:49:40;;;;;;;3.83;0.60;;;;;;;;;;4985076;28;20062;-65
2023/04/11 00:52:07;;;;;;;6.72;1.45;;;;;;;;;;4980579;28;20053;-65
2023/04/11 00:54:34;;;;;;;4.63;1.05;;;;;;;;;;4991232;28;20042;-65
2023/04/11 00:57:02;;;;;;;8.75;1.27;;;;;;;;;;4995858;28;20034;-64
2023/04/11 00:59:29;;;;;;;5.55;0.82;;;;;;;;;;4980620;28;20133;-66
2023/04/11 01:01:56;;;;;;;3.67;0.68;;;;;;;;;;4996570;28;20038;-65
2023/04/11 01:04:22;;;;;;;4.97;0.60;;;;;;;;;;4980603;28;20058;-62
2023/04/11 01:06:52;;;;;;;7.00;0.90;;;;;;;;;;4980386;28;20081;-64
2023/04/11 01:09:23;;;;;;;1.70;0.50;;;;;;;;;;4993110;28;20082;-62
2023/04/11 01:11:50;;;;;;;4.13;0.60;;;;;;;;;;4980364;28;20407;-65
2023/04/11 01:14:17;;;;;;;6.07;0.77;;;;;;;;;;4981053;28;20042;-65
2023/04/11 01:16:46;;;;;;;9.98;2.83;;;;;;;;;;4977231;28;20063;-64
2023/04/11 01:19:18;;;;;;;2.80;0.80;;;;;;;;;;4980421;28;20093;-62
2023/04/11 01:21:46;;;;;;;4.43;0.77;;;;;;;;;;4980447;28;20046;-60
2023/04/11 01:24:12;;;;;;;4.35;0.80;;;;;;;;;;4982519;28;20037;-63
2023/04/11 01:26:39;;;;;;;3.95;0.77;;;;;;;;;;4981654;28;20049;-65
2023/04/11 01:29:06;;;;;;;5.13;0.90;;;;;;;;;;4973827;28;20556;-63
2023/04/11 01:31:32;;;;;;;6.18;0.70;;;;;;;;;;4988939;28;20042;-64
2023/04/11 01:34:03;;;;;;;3.53;0.70;;;;;;;;;;4966822;28;20469;-64
2023/04/11 01:36:33;;;;;;;2.60;0.60;;;;;;;;;;4952920;28;20054;-63
2023/04/11 01:39:04;;;;;;;2.72;0.68;;;;;;;;;;4975776;28;20085;-61
2023/04/11 01:41:31;;;;;;;4.13;0.90;;;;;;;;;;4950265;28;20042;-61
2023/04/11 01:43:58;;;;;;;8.00;0.70;;;;;;;;;;4959412;28;20042;-62
2023/04/11 01:46:28;;;;;;;1.75;0.50;;;;;;;;;;4984646;28;20040;-61
2023/04/11 01:49:20;;;;;;;10.00;1.02;;;;;;;;;;4985210;28;20038;-62
2023/04/11 01:51:47;;;;;;;7.65;0.70;;;;;;;;;;4970045;28;20636;-63
2023/04/11 01:54:17;;;;;;;1.17;0.50;;;;;;;;;;4968313;28;20042;-63
2023/04/11 01:56:47;;;;;;;4.75;0.60;;;;;;;;;;4973935;28;20050;-64
2023/04/11 01:59:13;;;;;;;8.93;0.93;;;;;;;;;;4990140;28;20145;-66
2023/04/11 02:01:45;;;;;;;3.38;0.85;;;;;;;;;;4990609;28;20280;-64
2023/04/11 02:04:15;;;;;;;7.13;0.70;;;;;;;;;;4992668;28;20038;-63
2023/04/11 02:06:42;;;;;;;7.90;1.02;;;;;;;;;;4984303;28;20043;-63
2023/04/11 02:09:08;;;;;;;6.88;0.93;;;;;;;;;;4993722;28;20038;-63
2023/04/11 02:11:36;;;;;;;2.60;0.60;;;;;;;;;;4981830;28;20042;-63
2023/04/11 02:14:08;;;;;;;5.10;0.60;;;;;;;;;;4973283;28;20168;-63
2023/04/11 02:16:49;;;;;;;2.07;0.43;;;;;;;;;;4998906;28;20133;-61
2023/04/11 02:19:24;;;;;;;2.40;0.68;;;;;;;;;;4998326;28;20054;-63
2023/04/11 02:21:51;;;;;;;4.82;0.85;;;;;;;;;;4965724;28;20088;-62
2023/04/11 02:24:17;;;;;;;9.63;0.90;;;;;;;;;;4971719;28;20030;-63
2023/04/11 02:26:44;;;;;;;7.82;1.05;;;;;;;;;;4980553;28;20041;-61
2023/04/11 02:29:11;;;;;;;9.93;0.90;;;;;;;;;;4998689;28;20854;-63
2023/04/11 02:31:38;;;;;;;5.38;1.00;;;;;;;;;;4984745;28;20133;-69
2023/04/11 02:34:04;;;;;;;5.35;0.80;;;;;;;;;;4974812;28;20034;-64
2023/04/11 02:36:31;;;;;;;9.80;1.13;;;;;;;;;;4976399;28;20048;-65
2023/04/11 02:38:58;;;;;;;8.93;1.63;;;;;;;;;;4977100;28;20031;-64
2023/04/11 02:41:25;;;;;;;7.07;0.90;;;;;;;;;;4975408;28;20038;-63
2023/04/11 02:43:51;;;;;;;3.80;0.90;;;;;;;;;;4969214;28;20090;-61
2023/04/11 02:46:18;;;;;;;1.90;0.63;;;;;;;;;;4977773;28;20053;-63
2023/04/11 02:48:45;;;;;;;4.88;0.80;;;;;;;;;;4976605;28;20504;-64
2023/04/11 02:51:11;;;;;;;1.70;0.50;;;;;;;;;;4991681;28;21927;-61
2023/04/11 02:53:39;;;;;;;2.17;0.60;;;;;;;;;;4977689;28;20026;-63
2023/04/11 02:56:06;;;;;;;4.15;0.50;;;;;;;;;;4978443;28;20092;-62
2023/04/11 02:58:33;;;;;;;3.65;0.50;;;;;;;;;;4977770;28;20214;-62
2023/04/11 03:01:00;;;;;;;1.65;0.50;;;;;;;;;;4991708;28;20444;-63
2023/04/11 03:03:27;;;;;;;6.82;0.98;;;;;;;;;;4976804;28;20039;-64
2023/04/11 03:05:55;;;;;;;3.25;0.75;;;;;;;;;;4977583;28;20121;-63
2023/04/11 03:08:22;;;;;;;1.75;0.50;;;;;;;;;;4977287;28;20070;-64
2023/04/11 03:10:48;;;;;;;3.83;0.70;;;;;;;;;;4977408;28;20382;-63
2023/04/11 03:13:15;;;;;;;5.95;0.98;;;;;;;;;;4987730;28;20872;-61
2023/04/11 03:15:42;;;;;;;2.63;0.63;;;;;;;;;;4977467;28;20043;-61
2023/04/11 03:18:28;;;;;;;4.32;0.88;;;;;;;;;;5013706;28;20041;-63
2023/04/11 03:20:55;;;;;;;4.38;0.70;;;;;;;;;;5013899;28;20040;-62
2023/04/11 03:23:21;;;;;;;5.15;0.80;;;;;;;;;;5012320;28;20029;-64
2023/04/11 03:25:49;;;;;;;4.35;1.30;;;;;;;;;;5000371;28;20068;-61
2023/04/11 03:28:16;;;;;;;3.75;0.80;;;;;;;;;;4997179;28;20045;-60
2023/04/11 03:30:42;;;;;;;3.00;0.60;;;;;;;;;;5007706;28;20053;-63
2023/04/11 03:33:09;;;;;;;6.88;0.70;;;;;;;;;;4990375;28;20147;-63
2023/04/11 03:35:36;;;;;;;8.32;1.52;;;;;;;;;;5015408;28;20549;-62
2023/04/11 03:38:23;;;;;;;3.80;0.60;;;;;;;;;;4975605;28;20054;-64
2023/04/11 03:40:49;;;;;;;2.25;0.60;;;;;;;;;;4975102;28;20175;-62
2023/04/11 03:43:16;;;;;;;4.38;0.52;;;;;;;;;;4949259;28;20454;-60
2023/04/11 03:45:43;;;;;;;4.53;0.73;;;;;;;;;;4971926;28;20053;-63
2023/04/11 03:48:09;;;;;;;2.45;0.60;;;;;;;;;;4975348;28;20407;-63
2023/04/11 03:50:36;;;;;;;2.28;0.60;;;;;;;;;;4969716;28;20051;-61
2023/04/11 03:53:03;;;;;;;6.05;0.80;;;;;;;;;;4976058;28;20042;-63
2023/04/11 03:55:29;;;;;;;5.78;0.93;;;;;;;;;;4968320;28;20126;-63
2023/04/11 03:57:56;;;;;;;7.38;1.02;;;;;;;;;;4957360;28;20078;-60
2023/04/11 04:00:23;;;;;;;7.40;0.90;;;;;;;;;;4956503;28;20412;-63
2023/04/11 04:02:49;;;;;;;5.13;0.68;;;;;;;;;;4956671;28;20462;-63
2023/04/11 04:05:16;;;;;;;3.88;0.80;;;;;;;;;;4957021;28;20055;-62
2023/04/11 04:07:42;;;;;;;2.80;0.77;;;;;;;;;;4956078;28;20051;-63
2023/04/11 04:10:09;;;;;;;3.70;0.80;;;;;;;;;;4972834;28;20137;-60
2023/04/11 04:12:36;;;;;;;3.67;0.80;;;;;;;;;;4969639;28;20182;-61
2023/04/11 04:15:03;;;;;;;4.70;0.60;;;;;;;;;;4992881;28;20031;-59
2023/04/11 04:17:29;;;;;;;2.20;0.57;;;;;;;;;;4976709;28;20046;-62
2023/04/11 04:19:56;;;;;;;4.45;0.60;;;;;;;;;;4977042;28;20054;-61
2023/04/11 04:22:22;;;;;;;3.95;0.80;;;;;;;;;;4969321;28;20042;-63
2023/04/11 04:24:50;;;;;;;3.25;0.70;;;;;;;;;;4977951;28;20034;-61
2023/04/11 04:27:17;;;;;;;2.40;0.63;;;;;;;;;;4979267;28;20042;-60
2023/04/11 04:29:47;;;;;;;3.20;0.60;;;;;;;;;;4975685;28;20051;-64
2023/04/11 04:32:19;;;;;;;5.03;0.90;;;;;;;;;;4977817;28;20061;-60
2023/04/11 04:34:53;;;;;;;2.42;0.52;;;;;;;;;;4977110;28;20054;-59
2023/04/11 04:37:20;;;;;;;2.25;0.60;;;;;;;;;;4977321;28;20078;-65
2023/04/11 04:39:54;;;;;;;5.43;0.55;;;;;;;;;;4977454;28;20046;-61
2023/04/11 04:42:22;;;;;;;3.58;0.55;;;;;;;;;;4976679;28;20222;-62
2023/04/11 04:44:48;;;;;;;3.75;0.52;;;;;;;;;;4992633;28;20054;-61
2023/04/11 04:47:15;;;;;;;2.60;0.50;;;;;;;;;;4988352;28;20410;-63
2023/04/11 04:49:43;;;;;;;1.67;0.50;;;;;;;;;;4974996;28;20046;-63
2023/04/11 04:52:09;;;;;;;7.25;0.70;;;;;;;;;;4977890;28;20097;-61
2023/04/11 04:54:36;;;;;;;1.45;0.50;;;;;;;;;;4976958;28;20134;-61
2023/04/11 04:57:03;;;;;;;5.15;0.73;;;;;;;;;;4975736;28;20066;-62
2023/04/11 04:59:30;;;;;;;10.25;0.70;;;;;;;;;;4976230;28;20038;-61
2023/04/11 05:01:57;;;;;;;1.40;0.55;;;;;;;;;;4969429;28;20038;-61
2023/04/11 05:04:24;;;;;;;0.77;0.30;;;;;;;;;;4975654;28;20042;-64
2023/04/11 05:06:50;;;;;;;3.67;0.63;;;;;;;;;;4980206;28;20058;-61
2023/04/11 05:09:17;;;;;;;2.47;0.70;;;;;;;;;;4979811;28;20045;-61
2023/04/11 05:11:44;;;;;;;2.03;0.50;;;;;;;;;;4980905;28;20125;-62
2023/04/11 05:14:10;;;;;;;1.40;0.40;;;;;;;;;;4980374;28;20039;-61
2023/04/11 05:16:38;;;;;;;2.97;0.55;;;;;;;;;;4978920;28;20380;-60
2023/04/11 05:19:05;;;;;;;3.15;0.60;;;;;;;;;;4975967;28;20074;-63
2023/04/11 05:21:31;;;;;;;1.48;0.50;;;;;;;;;;4980062;28;20050;-61
2023/04/11 05:23:58;;;;;;;8.60;0.60;;;;;;;;;;4981358;28;20039;-63
2023/04/11 05:26:25;;;;;;;1.13;0.40;;;;;;;;;;4978072;28;20038;-60
2023/04/11 05:28:51;;;;;;;3.75;0.70;;;;;;;;;;4974085;28;20125;-61
2023/04/11 05:31:18;;;;;;;3.35;0.60;;;;;;;;;;4980854;28;20150;-62
2023/04/11 05:33:44;;;;;;;5.93;0.77;;;;;;;;;;4980040;28;20404;-63
2023/04/11 05:36:14;;;;;;;6.57;0.90;;;;;;;;;;4981742;28;20040;-61
2023/04/11 05:38:41;;;;;;;1.50;0.40;;;;;;;;;;4995849;28;20502;-62
2023/04/11 05:41:08;;;;;;;2.45;0.60;;;;;;;;;;4980982;28;20045;-62
2023/04/11 05:43:35;;;;;;;1.40;0.50;;;;;;;;;;4976923;28;20052;-61
2023/04/11 05:46:02;;;;;;;1.55;0.40;;;;;;;;;;4978529;28;20038;-61
2023/04/11 05:48:28;;;;;;;3.95;0.50;;;;;;;;;;4978364;28;20046;-63
2023/04/11 05:50:56;;;;;;;2.75;0.70;;;;;;;;;;4977364;28;20419;-63
2023/04/11 05:53:22;;;;;;;1.27;0.43;;;;;;;;;;4977444;28;20058;-62
2023/04/11 05:55:49;;;;;;;2.63;0.60;;;;;;;;;;4978326;28;20495;-60
2023/04/11 05:58:15;;;;;;;1.83;0.50;;;;;;;;;;4979389;28;20045;-59
2023/04/11 06:00:43;;;;;;;5.97;0.68;;;;;;;;;;4976373;28;20093;-60
2023/04/11 06:03:10;;;;;;;3.00;0.50;;;;;;;;;;4980042;28;20074;-61
2023/04/11 06:05:36;;;;;;;1.52;0.55;;;;;;;;;;4979180;28;21707;-63
2023/04/11 06:08:04;;;;;;;1.27;0.43;;;;;;;;;;4993363;28;20037;-61
2023/04/11 06:10:31;;;;;;;0.75;0.43;;;;;;;;;;4970617;28;20055;-62
2023/04/11 06:12:58;;;;;;;1.67;0.40;;;;;;;;;;4973600;28;20050;-64
2023/04/11 06:15:25;;;;;;;3.28;0.40;;;;;;;;;;4979695;28;20041;-62
2023/04/11 06:17:52;;;;;;;1.58;0.50;;;;;;;;;;4976937;28;20137;-63
2023/04/11 06:20:19;;;;;;;1.17;0.40;;;;;;;;;;4980965;28;21891;-63
2023/04/11 06:22:50;;;;;;;1.27;0.47;;;;;;;;;;4979860;28;20038;-61
2023/04/11 06:25:17;;;;;;;0.95;0.40;;;;;;;;;;4980848;28;20185;-62
2023/04/11 06:27:44;;;;;;;1.10;0.40;;;;;;;;;;4981103;28;20510;-61
2023/04/11 06:30:11;;;;;;;1.15;0.40;;;;;;;;;;4981024;28;20061;-60
2023/04/11 06:32:37;;;;;;;1.48;0.40;;;;;;;;;;4979801;28;20594;-61
2023/04/11 06:35:04;;;;;;;0.80;0.30;;;;;;;;;;4978529;28;20092;-61
2023/04/11 06:37:31;;;;;;;2.78;0.43;;;;;;;;;;4977772;28;20042;-62
2023/04/11 06:39:59;;;;;;;1.50;0.35;;;;;;;;;;4979298;28;20062;-61
2023/04/11 06:42:26;;;;;;;2.08;0.50;;;;;;;;;;4978910;28;20034;-60
2023/04/11 06:44:52;;;;;;;3.13;0.32;;;;;;;;;;4979759;28;20459;-64
2023/04/11 06:47:19;;;;;;;3.08;0.45;;;;;;;;;;4979956;28;20085;-64
2023/04/11 06:49:46;;;;;;;1.60;0.47;;;;;;;;;;4981028;28;20080;-62
2023/04/11 06:52:12;;;;;;;1.98;0.50;;;;;;;;;;4994592;28;20042;-62
2023/04/11 06:54:39;;;;;;;3.38;0.52;;;;;;;;;;4976586;28;20048;-62
2023/04/11 06:57:06;;;;;;;3.53;0.43;;;;;;;;;;4979956;28;20716;-61
2023/04/11 06:59:33;;;;;;;1.50;0.40;;;;;;;;;;4979169;28;20129;-62
2023/04/11 07:02:00;;;;;;;4.30;0.60;;;;;;;;;;4980716;28;20121;-61
2023/04/11 07:04:26;;;;;;;1.40;0.40;;;;;;;;;;4978760;28;20102;-62
2023/04/11 07:06:53;;;;;;;3.30;0.57;;;;;;;;;;4974890;28;20462;-59
2023/04/11 07:09:20;;;;;;;1.42;0.40;;;;;;;;;;4977731;28;20046;-59
2023/04/11 07:11:46;;;;;;;3.92;0.50;;;;;;;;;;4979045;28;20039;-62
2023/04/11 07:14:13;;;;;;;2.50;0.70;;;;;;;;;;4978095;28;20161;-62
2023/04/11 07:16:40;;;;;;;1.65;0.50;;;;;;;;;;4992085;28;20038;-63
2023/04/11 07:19:07;;;;;;;1.45;0.60;;;;;;;;;;4976070;28;20141;-59
2023/04/11 07:21:33;;;;;;;1.15;0.50;;;;;;;;;;4977359;28;20038;-58
2023/04/11 07:24:00;;;;;;;2.58;0.60;;;;;;;;;;4976900;28;20715;-59
2023/04/11 07:26:31;;;;;;;1.08;0.50;;;;;;;;;;4975987;28;20052;-58
2023/04/11 07:28:58;;;;;;;2.10;0.55;;;;;;;;;;4976314;28;20042;-59
2023/04/11 07:31:26;;;;;;;0.70;0.40;;;;;;;;;;4974836;28;20407;-63
2023/04/11 07:33:52;;;;;;;4.43;0.60;;;;;;;;;;4967327;28;20896;-61
2023/04/11 07:36:19;;;;;;;2.00;0.57;;;;;;;;;;4971547;28;20038;-64
2023/04/11 07:38:46;;;;;;;1.77;0.57;;;;;;;;;;4976807;28;20046;-62
2023/04/11 07:41:12;;;;;;;0.90;0.40;;;;;;;;;;4977095;28;20049;-59
2023/04/11 07:43:39;;;;;;;1.42;0.50;;;;;;;;;;4976638;28;20937;-61
2023/04/11 07:46:06;;;;;;;1.88;0.50;;;;;;;;;;4977986;28;20203;-63
2023/04/11 07:48:32;;;;;;;3.05;0.50;;;;;;;;;;4977384;28;20034;-61
2023/04/11 07:50:59;;;;;;;1.23;0.40;;;;;;;;;;4977847;28;20116;-63
2023/04/11 07:53:26;;;;;;;1.52;0.50;;;;;;;;;;4977709;28;20038;-64
2023/04/11 07:55:53;;;;;;;3.55;0.50;;;;;;;;;;4976974;28;20041;-61
2023/04/11 07:58:19;;;;;;;4.07;0.60;;;;;;;;;;4977174;28;20042;-62
2023/04/11 08:00:46;;;;;;;1.95;0.52;;;;;;;;;;4977848;28;20568;-64
2023/04/11 08:03:13;;;;;;;1.10;0.50;;;;;;;;;;4978233;28;20130;-62
2023/04/11 08:05:39;;;;;;;9.25;0.70;;;;;;;;;;4988870;28;20068;-63
2023/04/11 08:08:06;;;;;;;1.60;0.52;;;;;;;;;;4977876;28;20046;-65
2023/04/11 08:10:33;;;;;;;6.53;0.60;;;;;;;;;;4976769;28;20078;-62
2023/04/11 08:13:01;;;;;;;1.42;0.43;;;;;;;;;;4977680;28;20050;-61
2023/04/11 08:15:27;;;;;;;2.92;0.65;;;;;;;;;;4992036;28;20042;-62
2023/04/11 08:17:55;;;;;;;1.60;0.50;;;;;;;;;;4977711;28;20471;-63
2023/04/11 08:20:22;;;;;;;1.80;0.40;;;;;;;;;;4971965;28;20042;-64
2023/04/11 08:22:49;;;;;;;0.80;0.40;;;;;;;;;;4976798;28;20030;-61
2023/04/11 08:25:21;;;;;;;1.55;0.50;;;;;;;;;;4969895;28;20042;-59
2023/04/11 08:27:49;;;;;;;1.53;0.50;;;;;;;;;;4976038;28;20053;-62
2023/04/11 08:30:16;;;;;;;2.20;0.60;;;;;;;;;;4977137;28;20042;-63
2023/04/11 08:32:43;;;;;;;2.10;0.50;;;;;;;;;;4976425;28;20906;-62
2023/04/11 08:35:10;;;;;;;2.70;0.60;;;;;;;;;;4976539;28;20042;-63
2023/04/11 08:37:36;;;;;;;0.80;0.35;;;;;;;;;;4974454;28;20049;-63
2023/04/11 08:40:06;;;;;;;1.60;0.40;;;;;;;;;;4976803;28;20070;-60
2023/04/11 08:42:33;;;;;;;1.83;0.52;;;;;;;;;;4980959;28;21780;-60
2023/04/11 08:45:01;;;;;;;2.30;0.50;;;;;;;;;;4972502;28;20042;-59
2023/04/11 08:47:27;;;;;;;2.60;0.60;;;;;;;;;;4979736;28;20069;-61
2023/04/11 08:49:55;;;;;;;2.78;0.60;;;;;;;;;;4980894;28;21835;-62
2023/04/11 08:52:22;;;;;;;3.08;0.50;;;;;;;;;;4978930;28;20031;-61
2023/04/11 08:54:53;;;;;;;5.43;0.55;;;;;;;;;;4995431;28;20046;-62
2023/04/11 08:57:36;;;;;;;1.02;0.50;;;;;;;;;;4979686;28;20396;-61
2023/04/11 09:00:12;;;;;;;4.38;0.50;;;;;;;;;;4971122;28;20040;-60
2023/04/11 09:02:59;;;;;;;1.20;0.50;;;;;;;;;;4978360;28;20125;-60
2023/04/11 09:05:30;;;;;;;1.30;0.40;;;;;;;;;;4979728;28;20074;-60
2023/04/11 09:07:57;;;;;;;1.73;0.50;;;;;;;;;;4980509;28;20030;-60
2023/04/11 09:10:25;;;;;;;2.20;0.50;;;;;;;;;;4978691;28;20403;-61
2023/04/11 09:12:52;;;;;;;0.98;0.40;;;;;;;;;;4980231;28;21748;-60
2023/04/11 09:15:22;;;;;;;1.20;0.40;;;;;;;;;;4979439;28;20969;-58
2023/04/11 09:17:49;;;;;;;2.30;0.50;;;;;;;;;;4980919;28;20122;-62
2023/04/11 09:20:26;;;;;;;2.58;0.65;;;;;;;;;;4970287;28;20042;-60
2023/04/11 09:22:53;;;;;;;1.45;0.40;;;;;;;;;;4980069;28;20044;-61
2023/04/11 09:25:20;;;;;;;2.00;0.63;;;;;;;;;;4973991;28;20039;-59
2023/04/11 09:27:48;;;;;;;2.33;0.50;;;;;;;;;;4979334;28;20073;-60
2023/04/11 09:30:24;;;;;;;1.50;0.55;;;;;;;;;;4980562;28;20047;-60
2023/04/11 09:32:52;;;;;;;1.17;0.40;;;;;;;;;;4980195;28;20467;-62
2023/04/11 09:35:24;;;;;;;2.28;0.60;;;;;;;;;;4978945;28;20038;-60
2023/04/11 09:37:57;;;;;;;2.13;0.52;;;;;;;;;;4978795;28;20057;-60
2023/04/11 09:40:24;;;;;;;;;;;;;;;;;;4970665;28;20542;-62
2023/04/11 09:43:01;;;;;;;4.88;0.60;;;;;;;;;;4979335;28;19961;-62
2023/04/11 09:45:29;;;;;;;1.35;0.40;;;;;;;;;;4980126;28;20976;-59
2023/04/11 09:47:56;;;;;;;1.88;0.50;;;;;;;;;;4980292;28;20054;-58
2023/04/11 09:50:24;;;;;;;0.73;0.32;;;;;;;;;;4992041;28;20129;-59
2023/04/11 09:52:57;;;;;;;1.25;0.40;;;;;;;;;;4969763;28;20050;-59
2023/04/11 09:55:24;;;;;;;2.33;0.47;;;;;;;;;;4978646;28;20046;-61
2023/04/11 09:57:52;;;;;;;2.08;0.50;;;;;;;;;;4971865;28;20052;-61
2023/04/11 10:00:20;;;;;;;1.88;0.60;;;;;;;;;;4978183;28;20046;-62
2023/04/11 10:02:49;;;;;;;2.38;0.60;;;;;;;;;;4978033;28;20069;-59
2023/04/11 10:05:19;;;;;;;1.30;0.40;;;;;;;;;;4978406;28;20754;-62
2023/04/11 10:07:52;;;;;;;1.23;0.43;;;;;;;;;;4978527;28;20434;-60
2023/04/11 10:10:20;;;;;;;3.15;0.60;;;;;;;;;;4979236;28;20145;-61
2023/04/11 10:12:47;;;;;;;3.35;0.55;;;;;;;;;;4979597;28;20124;-61
2023/04/11 10:15:14;;;;;;;3.67;0.63;;;;;;;;;;4980542;28;20078;-59
2023/04/11 10:17:41;;;;;;;1.85;0.52;;;;;;;;;;4979198;28;20046;-60
2023/04/11 10:20:29;;;;;;;1.58;0.50;;;;;;;;;;4974760;28;20042;-62
2023/04/11 10:22:59;;;;;;;3.72;0.63;;;;;;;;;;4969110;28;20107;-62
2023/04/11 10:25:26;;;;;;;3.92;0.63;;;;;;;;;;4993327;28;20458;-59
2023/04/11 10:28:28;;;;;;;5.57;0.60;;;;;;;;;;4957836;28;20618;-58
2023/04/11 10:31:03;;;;;;;0.85;0.40;;;;;;;;;;4956217;28;20047;-58
2023/04/11 10:33:30;;;;;;;1.80;0.50;;;;;;;;;;4945002;28;20042;-61
2023/04/11 10:35:58;;;;;;;1.58;0.50;;;;;;;;;;4958249;28;20047;-60
2023/04/11 10:38:46;;;;;;;2.35;0.50;;;;;;;;;;4956045;28;20041;-60
2023/04/11 10:41:32;;;;;;;3.15;0.52;;;;;;;;;;4957131;28;20042;-62
2023/04/11 10:44:22;;;;;;;4.63;0.50;;;;;;;;;;4956361;28;20085;-58
2023/04/11 10:46:52;;;;;;;3.08;0.60;;;;;;;;;;4957218;28;20043;-61
2023/04/11 10:49:32;;;;;;;3.17;0.70;;;;;;;;;;4956351;28;20602;-62
2023/04/11 10:52:17;;;;;;;3.63;0.60;;;;;;;;;;4957636;28;20593;-60
2023/04/11 10:54:47;;;;;;;2.00;0.50;;;;;;;;;;4939194;28;20483;-62
2023/04/11 10:57:14;;;;;;;3.13;0.60;;;;;;;;;;4936983;28;20054;-60
2023/04/11 10:59:50;;;;;;;1.88;0.63;;;;;;;;;;4937347;28;20047;-59
2023/04/11 11:02:18;;;;;;;3.88;0.70;;;;;;;;;;4938080;28;20159;-59
2023/04/11 11:04:44;;;;;;;2.60;0.70;;;;;;;;;;4938454;28;20043;-60
2023/04/11 11:07:15;;;;;;;3.67;0.70;;;;;;;;;;4955944;28;20141;-59
2023/04/11 11:09:47;;;;;;;3.72;0.73;;;;;;;;;;4954867;28;20506;-59
2023/04/11 11:12:14;;;;;;;2.85;0.68;;;;;;;;;;4956563;28;20080;-59
2023/04/11 11:14:42;;;;;;;1.73;0.57;;;;;;;;;;4954629;28;20184;-59
2023/04/11 11:17:09;;;;;;;2.38;0.65;;;;;;;;;;4955595;28;20545;-64
2023/04/11 11:19:36;;;;;;;5.28;0.77;;;;;;;;;;4955892;28;20570;-59
2023/04/11 11:22:03;;;;;;;1.92;0.50;;;;;;;;;;4956081;28;20153;-61
2023/04/11 11:24:30;;;;;;;3.75;0.82;;;;;;;;;;4954753;28;20047;-59
2023/04/11 11:26:57;;;;;;;1.85;0.57;;;;;;;;;;4956044;28;20038;-62
2023/04/11 11:29:37;;;;;;;4.80;0.88;;;;;;;;;;4976263;28;20794;-61
2023/04/11 11:32:04;;;;;;;2.47;0.52;;;;;;;;;;4977973;28;20133;-63
2023/04/11 11:34:34;;;;;;;5.55;0.60;;;;;;;;;;4977332;28;20053;-61
2023/04/11 11:37:06;;;;;;;1.17;0.50;;;;;;;;;;4977644;28;20046;-66
2023/04/11 11:39:32;;;;;;;2.47;0.50;;;;;;;;;;4979105;28;20046;-64
2023/04/11 11:41:59;;;;;;;1.73;0.45;;;;;;;;;;4980777;28;20224;-62
2023/04/11 11:44:28;;;;;;;1.67;0.50;;;;;;;;;;4991330;28;20049;-62
2023/04/11 11:47:14;;;;;;;2.17;0.70;;;;;;;;;;4972053;28;22343;-58
2023/04/11 11:49:50;;;;;;;2.17;0.60;;;;;;;;;;4976824;28;20049;-60
2023/04/11 11:52:32;;;;;;;4.68;0.63;;;;;;;;;;4977122;28;20074;-63
2023/04/11 11:54:59;;;;;;;1.85;0.50;;;;;;;;;;4976902;28;20589;-61
2023/04/11 11:57:26;;;;;;;3.83;0.60;;;;;;;;;;4991183;28;20035;-58
2023/04/11 12:00:12;;;;;;;4.45;0.75;;;;;;;;;;4988995;28;20046;-60
2023/04/11 12:02:42;;;;;;;2.00;0.52;;;;;;;;;;4989117;28;20057;-60
2023/04/11 12:05:10;;;;;;;6.72;0.63;;;;;;;;;;4988737;28;20057;-61
2023/04/11 12:07:37;;;;;;;2.08;0.50;;;;;;;;;;4988014;28;20034;-60
2023/04/11 12:10:07;;;;;;;1.73;0.50;;;;;;;;;;4988629;28;20089;-60
2023/04/11 12:12:37;;;;;;;1.60;0.45;;;;;;;;;;4971996;28;20037;-61
2023/04/11 12:15:17;;;;;;;3.08;0.60;;;;;;;;;;4988182;28;20053;-59
2023/04/11 12:17:56;;;;;;;3.15;0.60;;;;;;;;;;4986458;28;20132;-61
2023/04/11 12:20:24;;;;;;;1.33;0.40;;;;;;;;;;4988274;28;20163;-58
2023/04/11 12:22:50;;;;;;;2.25;0.50;;;;;;;;;;4988729;28;20054;-61
2023/04/11 12:25:17;;;;;;;2.60;0.60;;;;;;;;;;4988685;28;20943;-59
2023/04/11 12:27:44;;;;;;;1.25;0.50;;;;;;;;;;4973235;28;20076;-59
2023/04/11 12:30:15;;;;;;;4.78;0.80;;;;;;;;;;4990149;28;20046;-59
2023/04/11 12:32:42;;;;;;;1.75;0.60;;;;;;;;;;4972034;28;20046;-61
2023/04/11 12:35:09;;;;;;;1.85;0.50;;;;;;;;;;4988727;28;20046;-62
2023/04/11 12:37:36;;;;;;;1.85;0.60;;;;;;;;;;4981864;28;20177;-60
2023/04/11 12:40:21;;;;;;;2.58;0.60;;;;;;;;;;4978669;28;20046;-61
2023/04/11 12:42:48;;;;;;;1.20;0.50;;;;;;;;;;4977910;28;20138;-61
2023/04/11 12:45:15;;;;;;;1.38;0.50;;;;;;;;;;4978763;28;20042;-61
2023/04/11 12:47:42;;;;;;;3.15;0.77;;;;;;;;;;4976360;28;20038;-60
2023/04/11 12:50:10;;;;;;;4.55;0.80;;;;;;;;;;4976495;28;20600;-61
2023/04/11 12:52:37;;;;;;;3.47;0.60;;;;;;;;;;4989548;28;20170;-60
2023/04/11 12:55:04;;;;;;;2.00;0.55;;;;;;;;;;4976091;28;20042;-63
2023/04/11 12:57:31;;;;;;;1.65;0.50;;;;;;;;;;4976042;28;20034;-63
2023/04/11 12:59:58;;;;;;;3.58;0.73;;;;;;;;;;4970037;28;20407;-60
2023/04/11 13:02:24;;;;;;;2.17;0.55;;;;;;;;;;4975569;28;20062;-61
2023/04/11 13:04:52;;;;;;;5.43;0.80;;;;;;;;;;4975840;28;20042;-62
2023/04/11 13:07:20;;;;;;;2.42;0.60;;;;;;;;;;4969152;28;20034;-61
2023/04/11 13:09:46;;;;;;;3.67;0.70;;;;;;;;;;4986707;28;20042;-63
2023/04/11 13:12:13;;;;;;;2.83;0.77;;;;;;;;;;4973738;28;20519;-61
2023/04/11 13:14:40;;;;;;;1.75;0.60;;;;;;;;;;4975519;28;20048;-59
2023/04/11 13:17:06;;;;;;;2.10;0.57;;;;;;;;;;4975967;28;20038;-58
2023/04/11 13:19:33;;;;;;;3.10;0.60;;;;;;;;;;4975532;28;20491;-58
2023/04/11 13:22:00;;;;;;;1.50;0.57;;;;;;;;;;4975764;28;20058;-67
2023/04/11 13:24:26;;;;;;;4.05;0.80;;;;;;;;;;4974291;28;20042;-61
2023/04/11 13:26:53;;;;;;;2.45;0.68;;;;;;;;;;4976855;28;20034;-60
2023/04/11 13:29:20;;;;;;;6.03;0.85;;;;;;;;;;4980254;28;20038;-59
2023/04/11 13:31:46;;;;;;;4.22;0.60;;;;;;;;;;4991039;28;20046;-61
2023/04/11 13:34:14;;;;;;;3.72;0.90;;;;;;;;;;4980263;28;20114;-59
2023/04/11 13:36:41;;;;;;;4.25;0.90;;;;;;;;;;4978588;28;20046;-61
2023/04/11 13:39:08;;;;;;;3.00;0.80;;;;;;;;;;4978784;28;20450;-63
2023/04/11 13:41:35;;;;;;;3.95;0.68;;;;;;;;;;4979289;28;20046;-61
2023/04/11 13:44:01;;;;;;;4.07;0.50;;;;;;;;;;4990250;28;20058;-61
2023/04/11 13:46:28;;;;;;;2.70;0.60;;;;;;;;;;4979195;28;20057;-62
2023/04/11 13:48:54;;;;;;;3.45;0.68;;;;;;;;;;4993216;28;20046;-62
2023/04/11 13:51:21;;;;;;;3.53;0.60;;;;;;;;;;4978575;28;20057;-60
2023/04/11 13:53:48;;;;;;;3.08;0.80;;;;;;;;;;4978702;28;20038;-62
2023/04/11 13:56:14;;;;;;;1.80;0.60;;;;;;;;;;4979265;28;20034;-58
2023/04/11 13:58:41;;;;;;;4.35;1.00;;;;;;;;;;4977503;28;20058;-59
2023/04/11 14:01:07;;;;;;;4.93;0.88;;;;;;;;;;4993488;28;20050;-62
2023/04/11 14:03:34;;;;;;;4.95;0.90;;;;;;;;;;4978524;28;20034;-60
2023/04/11 14:06:02;;;;;;;4.00;1.00;;;;;;;;;;4978955;28;20141;-62
2023/04/11 14:08:28;;;;;;;8.10;0.85;;;;;;;;;;4987338;28;20172;-64
2023/04/11 14:10:55;;;;;;;2.20;0.70;;;;;;;;;;4971546;28;20050;-63
2023/04/11 14:13:22;;;;;;;2.00;0.60;;;;;;;;;;4979057;28;20339;-60
2023/04/11 14:15:49;;;;;;;4.45;0.60;;;;;;;;;;4978853;28;20447;-60
2023/04/11 14:18:15;;;;;;;2.03;0.60;;;;;;;;;;4978042;28;20043;-62
2023/04/11 14:20:42;;;;;;;1.33;0.52;;;;;;;;;;4978240;28;20058;-61
2023/04/11 14:23:09;;;;;;;1.52;0.52;;;;;;;;;;4978156;28;20082;-60
2023/04/11 14:25:36;;;;;;;2.20;0.60;;;;;;;;;;4978766;28;20043;-61
2023/04/11 14:28:02;;;;;;;4.10;0.90;;;;;;;;;;4978269;28;20042;-61
2023/04/11 14:30:29;;;;;;;6.18;1.02;;;;;;;;;;4977865;28;20138;-63
2023/04/11 14:32:56;;;;;;;1.17;0.50;;;;;;;;;;4979244;28;20047;-62
2023/04/11 14:35:22;;;;;;;5.82;0.88;;;;;;;;;;4977519;28;20126;-61
2023/04/11 14:37:49;;;;;;;2.38;0.70;;;;;;;;;;4976317;28;20039;-61
2023/04/11 14:40:16;;;;;;;2.50;0.80;;;;;;;;;;4978384;28;20083;-62
2023/04/11 14:42:42;;;;;;;3.20;0.98;;;;;;;;;;4976546;28;20157;-61
2023/04/11 14:45:09;;;;;;;4.80;0.88;;;;;;;;;;4977856;28;20054;-60
2023/04/11 14:47:36;;;;;;;4.30;0.98;;;;;;;;;;4976447;28;20043;-63
2023/04/11 14:50:03;;;;;;;3.15;0.90;;;;;;;;;;4978195;28;20130;-59